createdAt,value
2023-04-16T00:00:14.610Z,101095.69
2023-04-16T00:03:05.162Z,101093.97
2023-04-16T00:05:34.682Z,101086.03
2023-04-16T00:08:03.792Z,101082.50
2023-04-16T00:10:33.145Z,101093.97
2023-04-16T00:13:02.363Z,101095.81
2023-04-16T00:15:31.409Z,101095.88
2023-04-16T00:18:00.351Z,101086.19
2023-04-16T00:20:30.838Z,101098.56
2023-04-16T00:22:59.892Z,101089.66
2023-04-16T00:25:28.901Z,101098.69
2023-04-16T00:27:57.750Z,101100.44
2023-04-16T00:30:26.800Z,101090.59
2023-04-16T00:32:55.861Z,101095.00
2023-04-16T00:35:25.011Z,101089.50
2023-04-16T00:37:55.254Z,101094.22
2023-04-16T00:40:24.458Z,101097.03
2023-04-16T00:42:53.679Z,101094.38
2023-04-16T00:45:22.708Z,101100.53
2023-04-16T00:47:51.719Z,101092.66
2023-04-16T00:50:20.993Z,101104.03
2023-04-16T00:52:50.214Z,101094.47
2023-04-16T00:55:21.512Z,101097.22
2023-04-16T00:57:50.499Z,101102.38
2023-04-16T01:00:19.524Z,101103.44
2023-04-16T01:02:48.906Z,101106.22
2023-04-16T01:05:18.115Z,101105.44
2023-04-16T01:07:47.078Z,101107.28
2023-04-16T01:10:16.272Z,101102.81
2023-04-16T01:12:46.649Z,101108.25
2023-04-16T01:15:15.922Z,101106.47
2023-04-16T01:17:45.412Z,101102.97
2023-04-16T01:20:14.754Z,101107.47
2023-04-16T01:22:44.868Z,101104.75
2023-04-16T01:25:15.263Z,101105.59
2023-04-16T01:27:44.268Z,101104.81
2023-04-16T01:30:13.542Z,101105.28
2023-04-16T01:32:52.996Z,101113.59
2023-04-16T01:35:22.122Z,101103.09
2023-04-16T01:37:53.913Z,101104.16
2023-04-16T01:40:23.170Z,101112.16
2023-04-16T01:42:52.267Z,101100.59
2023-04-16T01:45:22.058Z,101101.56
2023-04-16T01:47:51.293Z,101102.38
2023-04-16T01:50:20.492Z,101105.06
2023-04-16T01:52:50.062Z,101100.72
2023-04-16T01:55:20.769Z,101110.63
2023-04-16T01:57:49.708Z,101111.50
2023-04-16T02:00:18.908Z,101110.75
2023-04-16T02:02:49.321Z,101110.84
2023-04-16T02:05:27.120Z,101105.41
2023-04-16T02:07:56.193Z,101116.16
2023-04-16T02:10:26.592Z,101108.16
2023-04-16T02:12:56.573Z,101112.56
2023-04-16T02:15:26.194Z,101102.84
2023-04-16T02:17:57.228Z,101111.78
2023-04-16T02:20:27.872Z,101112.63
2023-04-16T02:23:01.807Z,101102.84
2023-04-16T02:25:32.956Z,101106.47
2023-04-16T02:28:01.950Z,101109.97
2023-04-16T02:31:21.797Z,101104.78
2023-04-16T02:33:50.793Z,101115.47
2023-04-16T02:36:19.824Z,101112.78
2023-04-16T02:38:48.705Z,101103.97
2023-04-16T02:41:19.192Z,101111.97
2023-04-16T02:43:48.046Z,101112.91
2023-04-16T02:46:17.265Z,101120.91
2023-04-16T02:48:46.104Z,101119.97
2023-04-16T02:51:15.382Z,101112.97
2023-04-16T02:53:46.051Z,101114.53
2023-04-16T02:56:15.869Z,101125.41
2023-04-16T02:58:45.978Z,101121.75
2023-04-16T03:01:16.508Z,101132.47
2023-04-16T03:03:45.543Z,101122.75
2023-04-16T03:06:14.703Z,101123.75
2023-04-16T03:08:43.536Z,101129.06
2023-04-16T03:11:12.741Z,101133.50
2023-04-16T03:13:41.492Z,101125.56
2023-04-16T03:16:12.179Z,101125.63
2023-04-16T03:18:41.281Z,101132.69
2023-04-16T03:21:10.702Z,101133.63
2023-04-16T03:23:40.064Z,101130.09
2023-04-16T03:26:09.104Z,101131.88
2023-04-16T03:28:37.992Z,101128.38
2023-04-16T03:31:07.442Z,101128.34
2023-04-16T03:33:38.793Z,101129.19
2023-04-16T03:36:08.377Z,101137.25
2023-04-16T03:38:37.412Z,101133.56
2023-04-16T03:41:06.496Z,101139.03
2023-04-16T03:43:35.833Z,101136.28
2023-04-16T03:46:04.958Z,101139.56
2023-04-16T03:48:34.205Z,101149.69
2023-04-16T03:51:04.709Z,101145.34
2023-04-16T03:53:35.076Z,101151.63
2023-04-16T03:56:04.477Z,101153.41
2023-04-16T03:58:33.229Z,101150.78
2023-04-16T04:01:02.384Z,101149.16
2023-04-16T04:03:32.086Z,101154.34
2023-04-16T04:06:01.490Z,101162.38
2023-04-16T04:08:33.838Z,101157.09
2023-04-16T04:11:03.037Z,101155.31
2023-04-16T04:13:33.412Z,101166.03
2023-04-16T04:16:02.588Z,101163.09
2023-04-16T04:18:31.915Z,101167.78
2023-04-16T04:21:05.762Z,101174.94
2023-04-16T04:23:36.988Z,101172.31
2023-04-16T04:26:07.921Z,101172.38
2023-04-16T04:28:37.241Z,101177.63
2023-04-16T04:31:07.098Z,101181.19
2023-04-16T04:33:36.021Z,101181.28
2023-04-16T04:36:05.106Z,101181.28
2023-04-16T04:38:36.731Z,101172.41
2023-04-16T04:41:06.648Z,101180.50
2023-04-16T04:43:38.604Z,101180.50
2023-04-16T04:46:08.575Z,101184.94
2023-04-16T04:48:37.711Z,101187.56
2023-04-16T04:51:06.904Z,101189.34
2023-04-16T04:53:37.166Z,101181.34
2023-04-16T04:56:12.109Z,101191.13
2023-04-16T04:58:42.590Z,101187.50
2023-04-16T05:01:14.788Z,101191.13
2023-04-16T05:03:43.831Z,101187.50
2023-04-16T05:06:13.035Z,101197.19
2023-04-16T05:08:43.217Z,101190.13
2023-04-16T05:11:12.364Z,101191.84
2023-04-16T05:13:41.361Z,101194.53
2023-04-16T05:16:10.540Z,101199.78
2023-04-16T05:18:39.327Z,101198.03
2023-04-16T05:21:08.343Z,101200.63
2023-04-16T05:23:37.429Z,101195.41
2023-04-16T05:26:07.933Z,101209.63
2023-04-16T05:28:36.899Z,101207.78
2023-04-16T05:31:06.013Z,101212.16
2023-04-16T05:33:34.934Z,101215.72
2023-04-16T05:36:04.013Z,101220.22
2023-04-16T05:38:32.801Z,101222.69
2023-04-16T05:41:02.079Z,101219.06
2023-04-16T05:43:32.749Z,101218.84
2023-04-16T05:46:02.579Z,101223.56
2023-04-16T05:48:31.326Z,101230.72
2023-04-16T05:51:02.366Z,101227.03
2023-04-16T05:53:31.212Z,101223.31
2023-04-16T05:56:00.409Z,101226.97
2023-04-16T05:58:29.269Z,101226.84
2023-04-16T06:00:59.707Z,101232.19
2023-04-16T06:03:28.829Z,101233.03
2023-04-16T06:05:58.220Z,101237.38
2023-04-16T06:08:27.068Z,101236.38
2023-04-16T06:10:56.612Z,101232.78
2023-04-16T06:13:26.046Z,101237.25
2023-04-16T06:15:55.159Z,101243.28
2023-04-16T06:18:25.684Z,101241.38
2023-04-16T06:20:54.976Z,101244.06
2023-04-16T06:23:23.971Z,101248.34
2023-04-16T06:25:53.062Z,101251.78
2023-04-16T06:28:22.010Z,101247.25
2023-04-16T06:30:51.047Z,101252.56
2023-04-16T06:33:19.944Z,101257.00
2023-04-16T06:35:50.702Z,101251.56
2023-04-16T06:38:19.854Z,101255.03
2023-04-16T06:40:50.916Z,101254.97
2023-04-16T06:43:19.880Z,101254.91
2023-04-16T06:45:49.069Z,101258.34
2023-04-16T06:48:17.841Z,101259.19
2023-04-16T06:50:47.085Z,101260.06
2023-04-16T06:53:17.426Z,101267.34
2023-04-16T06:55:46.714Z,101267.00
2023-04-16T06:58:15.662Z,101261.56
2023-04-16T07:00:44.946Z,101276.81
2023-04-16T07:03:13.928Z,101270.53
2023-04-16T07:05:43.265Z,101273.06
2023-04-16T07:08:12.259Z,101272.97
2023-04-16T07:10:42.963Z,101269.56
2023-04-16T07:13:12.036Z,101272.19
2023-04-16T07:15:41.180Z,101270.34
2023-04-16T07:18:10.365Z,101282.81
2023-04-16T07:20:39.686Z,101272.84
2023-04-16T07:23:08.554Z,101272.72
2023-04-16T07:25:37.752Z,101276.16
2023-04-16T07:28:07.978Z,101280.75
2023-04-16T07:30:37.863Z,101276.16
2023-04-16T07:33:06.744Z,101279.66
2023-04-16T07:35:36.466Z,101276.91
2023-04-16T07:38:05.983Z,101279.56
2023-04-16T07:40:35.584Z,101283.06
2023-04-16T07:43:04.538Z,101291.13
2023-04-16T07:45:35.626Z,101290.19
2023-04-16T07:48:05.568Z,101293.63
2023-04-16T07:50:34.743Z,101290.06
2023-04-16T07:53:03.829Z,101297.13
2023-04-16T07:55:33.016Z,101294.56
2023-04-16T07:58:02.645Z,101299.84
2023-04-16T08:00:31.764Z,101302.44
2023-04-16T08:03:02.374Z,101298.84
2023-04-16T08:05:32.901Z,101302.22
2023-04-16T08:08:02.951Z,101301.28
2023-04-16T08:10:32.110Z,101305.84
2023-04-16T08:13:01.369Z,101308.53
2023-04-16T08:15:30.915Z,101311.19
2023-04-16T08:18:00.524Z,101313.78
2023-04-16T08:20:31.490Z,101318.97
2023-04-16T08:23:00.809Z,101324.13
2023-04-16T08:25:29.826Z,101327.44
2023-04-16T08:27:58.593Z,101315.88
2023-04-16T08:30:27.714Z,101323.75
2023-04-16T08:32:56.599Z,101328.16
2023-04-16T08:35:25.808Z,101327.00
2023-04-16T08:37:57.879Z,101323.00
2023-04-16T08:40:28.151Z,101318.22
2023-04-16T08:42:59.415Z,101325.78
2023-04-16T08:45:28.793Z,101312.72
2023-04-16T08:47:57.787Z,101327.38
2023-04-16T08:50:28.431Z,101324.25
2023-04-16T08:52:59.831Z,101336.28
2023-04-16T08:55:33.652Z,101328.97
2023-04-16T08:58:05.240Z,101332.16
2023-04-16T09:00:35.027Z,101336.34
2023-04-16T09:03:05.259Z,101336.03
2023-04-16T09:05:35.026Z,101349.22
2023-04-16T09:08:05.791Z,101339.16
2023-04-16T09:10:35.818Z,101341.84
2023-04-16T09:13:05.186Z,101347.97
2023-04-16T09:15:36.462Z,101349.63
2023-04-16T09:18:05.814Z,101347.63
2023-04-16T09:20:34.928Z,101342.25
2023-04-16T09:23:05.057Z,101352.00
2023-04-16T09:25:34.596Z,101350.31
2023-04-16T09:28:03.499Z,101359.00
2023-04-16T09:30:33.477Z,101360.69
2023-04-16T09:33:16.726Z,101363.09
2023-04-16T09:35:49.672Z,101361.22
2023-04-16T09:38:20.441Z,101369.28
2023-04-16T09:41:06.647Z,101373.50
2023-04-16T09:43:35.653Z,101375.41
2023-04-16T09:46:08.304Z,101373.50
2023-04-16T09:48:37.779Z,101371.03
2023-04-16T09:51:07.590Z,101374.31
2023-04-16T09:53:37.941Z,101376.78
2023-04-16T09:56:07.887Z,101379.19
2023-04-16T09:58:37.777Z,101382.31
2023-04-16T10:01:08.736Z,101387.16
2023-04-16T10:03:40.071Z,101383.53
2023-04-16T10:06:11.106Z,101388.72
2023-04-16T10:08:44.028Z,101390.38
2023-04-16T10:11:13.439Z,101387.75
2023-04-16T10:13:42.286Z,101393.94
2023-04-16T10:16:11.895Z,101393.94
2023-04-16T10:18:42.986Z,101400.94
2023-04-16T10:21:12.837Z,101397.56
2023-04-16T10:23:43.480Z,101398.31
2023-04-16T10:26:12.678Z,101397.22
2023-04-16T10:28:41.807Z,101402.47
2023-04-16T10:31:11.216Z,101396.00
2023-04-16T10:33:41.010Z,101405.50
2023-04-16T10:36:11.365Z,101400.03
2023-04-16T10:38:41.157Z,101401.44
2023-04-16T10:41:11.780Z,101400.53
2023-04-16T10:43:42.028Z,101404.88
2023-04-16T10:46:21.274Z,101406.22
2023-04-16T10:48:51.096Z,101408.00
2023-04-16T10:51:27.844Z,101414.75
2023-04-16T10:53:57.402Z,101412.88
2023-04-16T10:56:28.082Z,101417.19
2023-04-16T10:58:57.551Z,101421.19
2023-04-16T11:01:34.054Z,101426.38
2023-04-16T11:04:23.338Z,101419.94
2023-04-16T11:07:01.873Z,101427.94
2023-04-16T11:09:52.699Z,101426.31
2023-04-16T11:12:23.939Z,101429.56
2023-04-16T11:14:53.728Z,101430.53
2023-04-16T11:17:23.399Z,101438.41
2023-04-16T11:19:53.553Z,101435.81
2023-04-16T11:22:22.986Z,101438.59
2023-04-16T11:24:55.285Z,101443.69
2023-04-16T11:27:26.423Z,101449.63
2023-04-16T11:29:59.994Z,101448.81
2023-04-16T11:32:29.650Z,101448.63
2023-04-16T11:35:04.524Z,101456.25
2023-04-16T11:37:35.180Z,101457.94
2023-04-16T11:40:07.047Z,101460.47
2023-04-16T11:42:40.631Z,101457.63
2023-04-16T11:45:12.275Z,101460.03
2023-04-16T11:47:45.680Z,101456.00
2023-04-16T11:50:22.089Z,101464.31
2023-04-16T11:52:51.752Z,101460.31
2023-04-16T11:55:20.879Z,101461.47
2023-04-16T11:57:51.731Z,101462.50
2023-04-16T12:00:23.020Z,101462.19
2023-04-16T12:02:55.365Z,101457.34
2023-04-16T12:05:28.665Z,101463.69
2023-04-16T12:07:58.388Z,101464.09
2023-04-16T12:10:27.194Z,101467.38
2023-04-16T12:13:12.376Z,101464.72
2023-04-16T12:15:47.921Z,101470.16
2023-04-16T12:18:17.309Z,101470.72
2023-04-16T12:20:46.566Z,101474.16
2023-04-16T12:23:25.637Z,101479.13
2023-04-16T12:25:54.556Z,101478.94
2023-04-16T12:28:34.924Z,101485.91
2023-04-16T12:31:03.910Z,101487.69
2023-04-16T12:33:33.122Z,101470.75
2023-04-16T12:36:05.999Z,101471.63
2023-04-16T12:38:35.234Z,101485.91
2023-04-16T12:41:06.391Z,101482.97
2023-04-16T12:43:37.450Z,101489.59
2023-04-16T12:46:06.759Z,101484.31
2023-04-16T12:48:36.259Z,101483.66
2023-04-16T12:51:05.193Z,101483.66
2023-04-16T12:53:34.196Z,101486.47
2023-04-16T12:56:10.742Z,101486.00
2023-04-16T12:58:41.539Z,101488.63
2023-04-16T13:01:12.019Z,101498.53
2023-04-16T13:03:41.498Z,101487.44
2023-04-16T13:06:10.458Z,101488.13
2023-04-16T13:08:39.578Z,101490.84
2023-04-16T13:11:08.977Z,101491.63
2023-04-16T13:13:38.256Z,101487.75
2023-04-16T13:16:08.823Z,101495.75
2023-04-16T13:18:38.634Z,101491.47
2023-04-16T13:21:07.543Z,101493.50
2023-04-16T13:23:45.312Z,101498.88
2023-04-16T13:26:15.840Z,101500.00
2023-04-16T13:28:45.075Z,101504.91
2023-04-16T13:31:15.829Z,101500.53
2023-04-16T13:33:45.170Z,101502.34
2023-04-16T13:36:13.934Z,101499.19
2023-04-16T13:38:43.364Z,101506.63
2023-04-16T13:41:12.164Z,101509.31
2023-04-16T13:43:41.441Z,101511.03
2023-04-16T13:46:10.525Z,101509.78
2023-04-16T13:48:41.202Z,101511.56
2023-04-16T13:51:12.045Z,101504.38
2023-04-16T13:53:41.282Z,101510.47
2023-04-16T13:56:11.089Z,101506.00
2023-04-16T13:58:40.937Z,101510.00
2023-04-16T14:01:10.884Z,101505.25
2023-04-16T14:03:42.221Z,101510.03
2023-04-16T14:06:11.202Z,101504.56
2023-04-16T14:08:40.213Z,101504.47
2023-04-16T14:11:09.268Z,101504.75
2023-04-16T14:13:38.395Z,101507.91
2023-04-16T14:16:07.745Z,101506.78
2023-04-16T14:18:41.152Z,101504.09
2023-04-16T14:21:11.577Z,101502.53
2023-04-16T14:23:41.164Z,101514.06
2023-04-16T14:26:09.932Z,101514.91
2023-04-16T14:28:39.579Z,101511.22
2023-04-16T14:31:08.375Z,101520.34
2023-04-16T14:33:37.515Z,101509.34
2023-04-16T14:36:25.741Z,101518.47
2023-04-16T14:38:57.839Z,101521.53
2023-04-16T14:41:27.214Z,101522.56
2023-04-16T14:43:56.284Z,101521.31
2023-04-16T14:46:25.343Z,101513.44
2023-04-16T14:48:54.401Z,101515.88
2023-04-16T14:51:23.630Z,101521.56
2023-04-16T14:53:52.963Z,101526.06
2023-04-16T14:56:26.360Z,101515.00
2023-04-16T14:58:55.706Z,101517.06
2023-04-16T15:01:24.739Z,101520.84
2023-04-16T15:03:56.298Z,101522.47
2023-04-16T15:06:25.254Z,101535.22
2023-04-16T15:08:54.300Z,101525.88
2023-04-16T15:11:23.149Z,101531.31
2023-04-16T15:13:53.600Z,101536.63
2023-04-16T15:16:22.791Z,101520.50
2023-04-16T15:18:51.952Z,101524.50
2023-04-16T15:21:20.860Z,101537.72
2023-04-16T15:23:49.882Z,101531.25
2023-04-16T15:26:19.163Z,101533.81
2023-04-16T15:28:48.294Z,101531.00
2023-04-16T15:31:20.846Z,101532.00
2023-04-16T15:33:50.493Z,101538.09
2023-04-16T15:36:19.252Z,101552.44
2023-04-16T15:38:48.270Z,101557.88
2023-04-16T15:41:17.116Z,101554.94
2023-04-16T15:43:46.295Z,101550.94
2023-04-16T15:46:15.213Z,101547.09
2023-04-16T15:48:46.147Z,101553.28
2023-04-16T15:51:15.213Z,101554.91
2023-04-16T15:53:45.437Z,101550.34
2023-04-16T15:56:14.349Z,101558.81
2023-04-16T15:58:43.422Z,101561.41
2023-04-16T16:01:12.536Z,101556.16
2023-04-16T16:03:42.019Z,101557.03
2023-04-16T16:06:12.528Z,101568.13
2023-04-16T16:08:43.646Z,101570.25
2023-04-16T16:11:12.608Z,101567.91
2023-04-16T16:13:42.827Z,101568.28
2023-04-16T16:16:11.869Z,101566.69
2023-04-16T16:18:42.102Z,101565.53
2023-04-16T16:21:12.934Z,101569.16
2023-04-16T16:23:42.506Z,101577.75
2023-04-16T16:26:11.293Z,101577.75
2023-04-16T16:28:41.106Z,101579.75
2023-04-16T16:31:10.338Z,101574.91
2023-04-16T16:33:40.775Z,101574.19
2023-04-16T16:36:14.714Z,101575.91
2023-04-16T16:38:46.516Z,101575.97
2023-04-16T16:41:17.124Z,101578.81
2023-04-16T16:43:46.245Z,101579.25
2023-04-16T16:46:18.181Z,101584.78
2023-04-16T16:48:48.469Z,101576.19
2023-04-16T16:51:19.176Z,101581.41
2023-04-16T16:53:48.384Z,101589.63
2023-04-16T16:56:17.191Z,101583.84
2023-04-16T16:58:47.776Z,101591.22
2023-04-16T17:01:16.824Z,101590.72
2023-04-16T17:03:46.410Z,101583.84
2023-04-16T17:06:15.336Z,101587.50
2023-04-16T17:08:51.365Z,101593.81
2023-04-16T17:11:27.284Z,101600.41
2023-04-16T17:13:57.820Z,101594.31
2023-04-16T17:16:29.290Z,101596.63
2023-04-16T17:18:59.563Z,101604.22
2023-04-16T17:21:33.230Z,101606.06
2023-04-16T17:24:06.648Z,101602.50
2023-04-16T17:26:35.545Z,101602.56
2023-04-16T17:29:05.928Z,101612.09
2023-04-16T17:31:38.210Z,101622.69
2023-04-16T17:34:11.561Z,101614.88
2023-04-16T17:36:41.197Z,101612.50
2023-04-16T17:39:11.832Z,101617.03
2023-04-16T17:41:41.504Z,101618.09
2023-04-16T17:44:11.934Z,101614.81
2023-04-16T17:46:41.657Z,101617.63
2023-04-16T17:49:13.538Z,101615.16
2023-04-16T17:51:44.800Z,101621.56
2023-04-16T17:54:18.184Z,101623.50
2023-04-16T17:56:49.179Z,101625.63
2023-04-16T17:59:18.566Z,101623.09
2023-04-16T18:01:49.624Z,101622.44
2023-04-16T18:04:21.688Z,101632.44
2023-04-16T18:06:51.227Z,101632.56
2023-04-16T18:09:22.506Z,101638.91
2023-04-16T18:11:52.759Z,101634.72
2023-04-16T18:14:25.322Z,101639.38
2023-04-16T18:16:55.653Z,101640.28
2023-04-16T18:19:25.519Z,101634.09
2023-04-16T18:21:57.328Z,101636.22
2023-04-16T18:24:29.532Z,101643.38
2023-04-16T18:26:59.287Z,101644.31
2023-04-16T18:29:33.905Z,101644.63
2023-04-16T18:32:11.674Z,101658.00
2023-04-16T18:34:43.497Z,101652.81
2023-04-16T18:37:14.969Z,101649.34
2023-04-16T18:39:52.474Z,101662.81
2023-04-16T18:42:30.278Z,101657.56
2023-04-16T18:45:00.179Z,101655.91
2023-04-16T18:47:31.494Z,101655.16
2023-04-16T18:50:02.308Z,101656.13
2023-04-16T18:52:33.484Z,101657.28
2023-04-16T18:55:06.618Z,101657.34
2023-04-16T18:57:38.289Z,101656.47
2023-04-16T19:00:12.957Z,101660.97
2023-04-16T19:02:44.857Z,101661.84
2023-04-16T19:05:16.377Z,101664.59
2023-04-16T19:07:48.554Z,101664.72
2023-04-16T19:10:19.801Z,101667.41
2023-04-16T19:12:49.995Z,101671.88
2023-04-16T19:15:19.226Z,101671.91
2023-04-16T19:17:48.633Z,101679.13
2023-04-16T19:20:20.428Z,101672.22
2023-04-16T19:22:49.798Z,101666.00
2023-04-16T19:25:22.465Z,101661.53
2023-04-16T19:27:56.104Z,101677.78
2023-04-16T19:30:25.610Z,101677.59
2023-04-16T19:32:56.776Z,101675.09
2023-04-16T19:35:27.179Z,101680.59
2023-04-16T19:37:56.593Z,101674.38
2023-04-16T19:40:27.672Z,101681.53
2023-04-16T19:42:57.485Z,101681.53
2023-04-16T19:45:27.536Z,101675.38
2023-04-16T19:48:00.152Z,101677.16
2023-04-16T19:50:29.620Z,101684.28
2023-04-16T19:52:59.568Z,101685.16
2023-04-16T19:55:31.250Z,101689.75
2023-04-16T19:58:06.185Z,101684.44
2023-04-16T20:00:35.664Z,101688.03
2023-04-16T20:03:05.199Z,101683.72
2023-04-16T20:05:36.057Z,101690.91
2023-04-16T20:08:05.279Z,101683.03
2023-04-16T20:10:36.136Z,101680.47
2023-04-16T20:13:10.059Z,101683.22
2023-04-16T20:15:39.899Z,101685.81
2023-04-16T20:18:09.206Z,101682.25
2023-04-16T20:20:38.703Z,101677.88
2023-04-16T20:23:07.488Z,101677.81
2023-04-16T20:25:41.518Z,101677.06
2023-04-16T20:28:10.880Z,101685.03
2023-04-16T20:30:41.325Z,101678.84
2023-04-16T20:33:11.892Z,101688.66
2023-04-16T20:35:42.299Z,101684.19
2023-04-16T20:38:11.311Z,101676.28
2023-04-16T20:40:44.669Z,101687.03
2023-04-16T20:43:14.695Z,101685.31
2023-04-16T20:45:46.242Z,101687.16
2023-04-16T20:48:16.674Z,101684.56
2023-04-16T20:50:49.620Z,101689.84
2023-04-16T20:53:20.201Z,101692.59
2023-04-16T20:55:52.724Z,101694.41
2023-04-16T20:58:21.647Z,101705.91
2023-04-16T21:00:51.345Z,101699.84
2023-04-16T21:03:20.926Z,101696.25
2023-04-16T21:05:51.085Z,101697.16
2023-04-16T21:08:20.023Z,101690.09
2023-04-16T21:10:49.418Z,101694.56
2023-04-16T21:13:20.806Z,101701.69
2023-04-16T21:15:49.973Z,101692.88
2023-04-16T21:18:19.352Z,101690.22
2023-04-16T21:20:48.482Z,101692.13
2023-04-16T21:23:17.336Z,101685.09
2023-04-16T21:25:46.718Z,101696.69
2023-04-16T21:28:15.563Z,101686.91
2023-04-16T21:30:46.363Z,101681.63
2023-04-16T21:33:16.691Z,101674.56
2023-04-16T21:35:46.133Z,101678.16
2023-04-16T21:38:15.011Z,101680.84
2023-04-16T21:40:44.057Z,101692.41
2023-04-16T21:43:13.305Z,101684.47
2023-04-16T21:45:42.317Z,101681.81
2023-04-16T21:48:12.673Z,101683.63
2023-04-16T21:50:41.888Z,101686.31
2023-04-16T21:53:10.741Z,101680.19
2023-04-16T21:55:40.683Z,101688.22
2023-04-16T21:58:09.553Z,101690.84
2023-04-16T22:00:38.623Z,101699.69
2023-04-16T22:03:08.994Z,101693.53
2023-04-16T22:05:39.772Z,101697.91
2023-04-16T22:08:23.246Z,101704.16
2023-04-16T22:10:57.055Z,101696.22
2023-04-16T22:13:26.331Z,101696.25
2023-04-16T22:15:56.033Z,101696.22
2023-04-16T22:18:25.741Z,101697.13
2023-04-16T22:20:57.164Z,101687.41
2023-04-16T22:23:26.606Z,101694.47
2023-04-16T22:25:56.274Z,101700.63
2023-04-16T22:28:25.201Z,101702.44
2023-04-16T22:30:54.205Z,101700.63
2023-04-16T22:33:23.170Z,101698.78
2023-04-16T22:35:52.984Z,101704.09
2023-04-16T22:38:23.377Z,101707.63
2023-04-16T22:40:52.576Z,101704.09
2023-04-16T22:43:21.667Z,101702.25
2023-04-16T22:45:50.869Z,101705.78
2023-04-16T22:48:19.631Z,101710.19
2023-04-16T22:50:51.177Z,101710.16
2023-04-16T22:53:20.344Z,101703.03
2023-04-16T22:55:51.243Z,101704.78
2023-04-16T22:58:20.134Z,101711.88
2023-04-16T23:00:49.176Z,101712.72
2023-04-16T23:03:18.481Z,101717.09
2023-04-16T23:05:47.538Z,101718.88
2023-04-16T23:08:16.477Z,101716.19
2023-04-16T23:10:45.634Z,101717.97
2023-04-16T23:13:15.890Z,101709.97
2023-04-16T23:15:45.982Z,101710.84
2023-04-16T23:18:14.851Z,101709.06
2023-04-16T23:20:44.167Z,101716.09
2023-04-16T23:23:13.127Z,101716.03
2023-04-16T23:25:42.273Z,101716.88
2023-04-16T23:28:11.096Z,101705.34
2023-04-16T23:30:41.626Z,101709.84
2023-04-16T23:33:10.559Z,101716.88
2023-04-16T23:35:39.648Z,101713.31
2023-04-16T23:38:08.724Z,101711.56
2023-04-16T23:40:38.345Z,101723.94
2023-04-16T23:43:07.248Z,101715.97
2023-04-16T23:45:36.313Z,101718.63
2023-04-16T23:48:07.001Z,101723.88
2023-04-16T23:50:36.211Z,101713.25
2023-04-16T23:53:04.975Z,101722.97
2023-04-16T23:55:34.151Z,101714.03
2023-04-16T23:58:02.942Z,101720.22
